Time;durP1;ratioP1;P1;durP2;ratioP2;P2;SDS_P1;SDS_P2;PMS_P1;PMS_P2;Temp;Humidity;BMP_temperature;BMP_pressure;BME280_temperature;BME280_humidity;BME280_pressure;Samples;Min_cycle;Max_cycle;Signal;HPM_P1;HPM_P2
2021/06/18 00:02:24;;;;;;;0.68;0.30;;;;;;;11.09;100.00;99943.56;5075303;28;20047;-45
2021/06/18 00:05:28;;;;;;;0.50;0.20;;;;;;;11.09;100.00;99940.78;5075593;28;20047;-54
2021/06/18 00:08:31;;;;;;;1.98;0.57;;;;;;;11.07;100.00;99940.50;5075852;28;20059;-54
2021/06/18 00:11:35;;;;;;;0.10;0.10;;;;;;;11.04;100.00;99930.31;5075453;28;20060;-54
2021/06/18 00:14:39;;;;;;;1.58;0.70;;;;;;;10.99;100.00;99930.97;5075424;28;20047;-54
2021/06/18 00:17:42;;;;;;;0.50;0.30;;;;;;;11.00;100.00;99929.72;5075434;28;20067;-53
2021/06/18 00:20:46;;;;;;;0.28;0.28;;;;;;;10.98;100.00;99932.97;5075779;28;20043;-54
2021/06/18 00:23:49;;;;;;;11.80;1.38;;;;;;;10.98;100.00;99932.22;5075362;28;20504;-54
2021/06/18 00:26:53;;;;;;;0.30;0.30;;;;;;;10.95;100.00;99944.31;5075372;28;20055;-52
2021/06/18 00:29:56;;;;;;;0.43;0.40;;;;;;;10.93;100.00;99941.22;5075400;28;20051;-54
2021/06/18 00:33:00;;;;;;;0.20;0.20;;;;;;;10.90;100.00;99939.38;5075184;28;20056;-54
2021/06/18 00:36:04;;;;;;;1.02;0.15;;;;;;;10.89;100.00;99946.22;5075121;28;20044;-53
2021/06/18 00:39:08;;;;;;;0.10;0.10;;;;;;;10.89;100.00;99946.22;5075443;28;20065;-54
2021/06/18 00:42:11;;;;;;;1.95;0.20;;;;;;;10.86;100.00;99949.94;5074945;28;20043;-54
2021/06/18 00:45:15;;;;;;;0.13;0.13;;;;;;;10.86;100.00;99955.50;5075221;28;20044;-53
2021/06/18 00:48:21;;;;;;;0.45;0.30;;;;;;;10.83;100.00;99956.47;5075080;28;20052;-45
2021/06/18 00:51:25;;;;;;;5.45;0.40;;;;;;;10.82;100.00;99946.56;5074923;28;20060;-45
2021/06/18 00:54:29;;;;;;;1.00;0.68;;;;;;;10.81;100.00;99947.81;5074776;28;20063;-45
2021/06/18 00:57:33;;;;;;;0.90;0.82;;;;;;;10.78;100.00;99955.13;5074810;28;20435;-45
2021/06/18 01:00:36;;;;;;;0.30;0.20;;;;;;;10.77;100.00;99950.00;5073957;28;20048;-45
2021/06/18 01:03:40;;;;;;;0.40;0.40;;;;;;;10.73;100.00;99943.84;5074779;28;20051;-54
2021/06/18 01:06:52;;;;;;;3.83;0.52;;;;;;;10.72;100.00;99943.06;5074514;28;20048;-54
2021/06/18 01:10:20;;;;;;;3.88;0.55;;;;;;;10.73;100.00;99943.84;5074599;28;20389;-54
2021/06/18 01:13:51;;;;;;;8.05;0.65;;;;;;;10.72;100.00;99939.53;5074111;28;20512;-54
2021/06/18 01:17:17;;;;;;;0.55;0.55;;;;;;;10.79;100.00;99947.50;5074548;28;20051;-53
2021/06/18 01:20:39;;;;;;;1.23;0.20;;;;;;;10.79;100.00;99947.50;5074320;28;20047;-45
2021/06/18 01:23:56;;;;;;;0.20;0.13;;;;;;;10.77;100.00;99955.56;5074536;28;20385;-45
2021/06/18 01:27:05;;;;;;;0.80;0.60;;;;;;;10.71;100.00;99949.13;5074536;28;20059;-54
2021/06/18 01:30:09;;;;;;;0.52;0.20;;;;;;;10.68;100.00;99953.63;5074506;28;20480;-45
2021/06/18 01:33:17;;;;;;;15.27;0.60;;;;;;;10.74;100.00;99942.63;5074233;28;20067;-45
2021/06/18 01:36:23;;;;;;;4.20;0.60;;;;;;;10.80;100.00;99963.00;5073992;28;20044;-45
2021/06/18 01:39:29;;;;;;;0.35;0.13;;;;;;;10.79;100.00;99961.44;5073955;28;20040;-45
2021/06/18 01:42:36;;;;;;;1.00;0.40;;;;;;;10.80;100.00;99966.56;5073782;28;20405;-45
2021/06/18 01:45:42;;;;;;;8.20;0.35;;;;;;;10.80;100.00;99972.13;5073774;28;20526;-45
2021/06/18 01:48:50;;;;;;;3.00;0.35;;;;;;;10.78;100.00;99971.84;5073976;28;20044;-45
2021/06/18 01:51:55;;;;;;;0.38;0.20;;;;;;;10.74;100.00;99962.88;5073877;28;20052;-45
2021/06/18 01:55:01;;;;;;;1.85;0.30;;;;;;;10.76;100.00;99968.75;5073516;28;20504;-45
2021/06/18 01:58:06;;;;;;;0.93;0.10;;;;;;;10.73;100.00;99966.13;5073618;28;20052;-45
2021/06/18 02:01:11;;;;;;;0.55;0.20;;;;;;;10.72;100.00;99973.72;5073534;28;20051;-45
2021/06/18 02:04:16;;;;;;;0.45;0.40;;;;;;;10.67;100.00;99968.81;5073759;28;20062;-45
2021/06/18 02:07:23;;;;;;;0.47;0.45;;;;;;;10.64;100.00;99969.75;5073418;28;20404;-45
2021/06/18 02:10:26;;;;;;;0.17;0.17;;;;;;;10.61;100.00;99971.44;5073121;28;20044;-45
2021/06/18 02:13:32;;;;;;;3.22;0.65;;;;;;;10.61;100.00;99968.66;5073170;28;20044;-45
2021/06/18 02:16:40;;;;;;;1.05;0.20;;;;;;;10.62;100.00;99973.00;5072264;28;20047;-45
2021/06/18 02:19:47;;;;;;;3.03;0.30;;;;;;;10.52;100.00;99976.31;5073440;28;20043;-45
2021/06/18 02:22:52;;;;;;;0.28;0.28;;;;;;;10.49;100.00;99969.69;5073197;28;20051;-45
2021/06/18 02:25:58;;;;;;;0.10;0.10;;;;;;;10.48;100.00;99970.16;5073286;28;20397;-45
2021/06/18 02:29:05;;;;;;;0.40;0.13;;;;;;;10.44;100.00;99959.16;5073289;28;20393;-45
2021/06/18 02:32:11;;;;;;;1.92;1.15;;;;;;;10.44;100.00;99961.19;5073227;28;20044;-45
2021/06/18 02:35:15;;;;;;;0.10;0.10;;;;;;;10.37;100.00;99967.84;5073072;28;20071;-45
2021/06/18 02:38:19;;;;;;;7.13;0.60;;;;;;;10.32;100.00;99967.75;5072886;28;20051;-45
2021/06/18 02:41:22;;;;;;;0.30;0.30;;;;;;;10.21;100.00;99973.81;5072669;28;20040;-45
2021/06/18 02:44:26;;;;;;;0.30;0.10;;;;;;;10.14;100.00;99976.94;5072753;28;20043;-45
2021/06/18 02:47:44;;;;;;;0.75;0.47;;;;;;;10.09;100.00;99974.75;5072476;28;20047;-45
2021/06/18 02:51:09;;;;;;;0.57;0.25;;;;;;;10.07;100.00;99973.72;5072539;28;20539;-45
2021/06/18 02:54:37;;;;;;;0.50;0.40;;;;;;;10.09;100.00;99969.19;5072714;28;20051;-45
2021/06/18 02:57:54;;;;;;;2.85;0.38;;;;;;;10.08;100.00;99967.66;5072501;28;20067;-45
2021/06/18 03:00:58;;;;;;;0.20;0.20;;;;;;;10.04;100.00;99975.41;5071625;28;20047;-45
2021/06/18 03:04:02;;;;;;;0.52;0.10;;;;;;;9.98;100.00;99980.06;5072963;28;20378;-45
2021/06/18 03:07:08;;;;;;;0.63;0.10;;;;;;;9.90;100.00;99967.72;5072602;28;20517;-45
2021/06/18 03:10:15;;;;;;;7.78;0.30;;;;;;;9.83;100.00;99968.06;5072262;28;20052;-45
2021/06/18 03:13:30;;;;;;;0.20;0.20;;;;;;;9.74;100.00;99962.53;5072462;28;20067;-45
2021/06/18 03:16:35;;;;;;;2.25;0.57;;;;;;;9.63;100.00;99957.44;5071979;28;20051;-45
2021/06/18 03:19:45;;;;;;;3.75;0.50;;;;;;;9.59;100.00;99964.41;5071935;28;20077;-45
2021/06/18 03:22:54;;;;;;;0.30;0.30;;;;;;;9.52;100.00;99964.72;5072234;28;20055;-45
2021/06/18 03:25:59;;;;;;;0.47;0.47;;;;;;;9.49;100.00;99954.50;5072101;28;20044;-45
2021/06/18 03:29:03;;;;;;;2.90;0.55;;;;;;;9.47;100.00;99968.88;5072489;28;20044;-45
2021/06/18 03:32:09;;;;;;;1.65;1.00;;;;;;;9.39;100.00;99962.09;5072446;28;20389;-45
2021/06/18 03:35:13;;;;;;;0.82;0.75;;;;;;;9.36;100.00;99962.25;5072222;28;20428;-45
2021/06/18 03:38:18;;;;;;;0.45;0.25;;;;;;;9.33;100.00;99963.19;5072023;28;20051;-45
2021/06/18 03:41:22;;;;;;;0.60;0.60;;;;;;;9.38;100.00;99977.22;5071948;28;20047;-45
2021/06/18 03:44:27;;;;;;;0.95;0.50;;;;;;;9.44;100.00;99969.81;5072278;28;20064;-45
2021/06/18 03:47:32;;;;;;;1.60;0.65;;;;;;;9.55;100.00;99974.91;5071974;28;20035;-54
2021/06/18 03:50:36;;;;;;;2.50;0.93;;;;;;;9.65;100.00;99976.44;5071724;28;20040;-54
2021/06/18 03:53:40;;;;;;;3.13;0.95;;;;;;;9.71;100.00;99978.13;5071965;28;20048;-54
2021/06/18 03:56:48;;;;;;;0.85;0.85;;;;;;;9.78;100.00;99979.81;5071504;28;20056;-54
2021/06/18 03:59:53;;;;;;;4.82;0.63;;;;;;;9.82;100.00;99981.19;5072074;28;20052;-54
2021/06/18 04:02:58;;;;;;;0.90;0.65;;;;;;;9.86;100.00;99990.13;5071858;28;20052;-54
2021/06/18 04:06:06;;;;;;;1.90;0.28;;;;;;;9.91;100.00;99985.97;5071772;28;20055;-55
2021/06/18 04:09:10;;;;;;;2.70;0.93;;;;;;;9.96;100.00;99985.34;5071976;28;20056;-55
2021/06/18 04:12:15;;;;;;;1.13;0.30;;;;;;;9.98;100.00;99987.63;5071856;28;20138;-53
2021/06/18 04:15:22;;;;;;;19.45;1.05;;;;;;;9.96;100.00;99977.00;5071691;28;20044;-54
2021/06/18 04:18:27;;;;;;;0.75;0.40;;;;;;;9.90;100.00;99985.19;5071738;28;20099;-55
2021/06/18 04:21:31;;;;;;;4.15;0.60;;;;;;;9.82;100.00;99985.97;5071458;28;20051;-55
2021/06/18 04:24:34;;;;;;;2.20;0.77;;;;;;;9.75;100.00;99991.84;5071386;28;20043;-53
2021/06/18 04:27:37;;;;;;;3.25;0.57;;;;;;;9.67;100.00;99993.41;5071428;28;20048;-54
2021/06/18 04:30:41;;;;;;;1.13;0.50;;;;;;;9.63;100.00;99990.03;5071306;28;20512;-55
2021/06/18 04:33:45;;;;;;;6.05;1.65;;;;;;;9.62;100.00;99980.91;5071237;28;20401;-55
2021/06/18 04:36:48;;;;;;;0.88;0.50;;;;;;;9.59;100.00;99997.75;5071330;28;20405;-54
2021/06/18 04:39:54;;;;;;;0.40;0.40;;;;;;;9.62;100.00;99994.81;5071422;28;20047;-54
2021/06/18 04:42:59;;;;;;;1.10;0.30;;;;;;;9.53;100.00;100005.19;5071614;28;20052;-54
2021/06/18 04:46:02;;;;;;;2.67;0.90;;;;;;;9.45;100.00;99993.59;5071561;28;20047;-54
2021/06/18 04:49:06;;;;;;;1.63;0.50;;;;;;;9.40;100.00;99990.69;5074932;28;20048;-54
2021/06/18 04:52:09;;;;;;;0.47;0.40;;;;;;;9.37;100.00;99988.81;5075031;28;20059;-55
2021/06/18 04:55:17;;;;;;;5.50;0.80;;;;;;;9.38;100.00;99996.69;5074912;28;20059;-52
2021/06/18 04:58:21;;;;;;;1.95;0.75;;;;;;;9.42;100.00;100002.09;5074799;28;20052;-54
2021/06/18 05:01:24;;;;;;;6.57;1.10;;;;;;;9.45;100.00;99988.03;5074753;28;20040;-54
2021/06/18 05:04:27;;;;;;;2.85;0.40;;;;;;;9.48;100.00;99991.91;5074931;28;20048;-54
2021/06/18 05:07:31;;;;;;;1.08;0.40;;;;;;;9.56;100.00;99976.44;5074551;28;20047;-54
2021/06/18 05:10:34;;;;;;;4.78;1.00;;;;;;;9.68;100.00;99978.28;5074320;28;20056;-54
2021/06/18 05:13:38;;;;;;;0.35;0.15;;;;;;;9.75;100.00;99989.84;5074413;28;20048;-54
2021/06/18 05:16:42;;;;;;;2.90;0.70;;;;;;;9.78;100.00;99999.28;5074515;28;20071;-54
2021/06/18 05:19:46;;;;;;;1.65;0.77;;;;;;;9.97;100.00;99992.44;5074635;28;20048;-54
2021/06/18 05:22:49;;;;;;;1.05;0.80;;;;;;;10.05;100.00;99990.84;5074514;28;20043;-55
2021/06/18 05:25:53;;;;;;;3.00;0.60;;;;;;;10.21;100.00;99998.09;5074335;28;20055;-55
2021/06/18 05:28:58;;;;;;;13.63;0.93;;;;;;;10.40;100.00;99996.78;5074215;28;20067;-54
2021/06/18 05:32:03;;;;;;;6.30;0.80;;;;;;;10.38;100.00;99997.25;5074560;28;20044;-54
2021/06/18 05:35:07;;;;;;;0.30;0.30;;;;;;;10.43;100.00;99988.28;5074220;28;20051;-54
2021/06/18 05:38:11;;;;;;;1.33;0.68;;;;;;;10.49;100.00;99994.72;5074296;28;20043;-54
2021/06/18 05:41:15;;;;;;;1.08;0.47;;;;;;;10.59;100.00;99985.06;5073912;28;20047;-53
2021/06/18 05:44:18;;;;;;;1.60;0.47;;;;;;;10.73;100.00;99988.41;5073872;28;20503;-54
2021/06/18 05:47:21;;;;;;;9.57;0.63;;;;;;;10.87;100.00;99984.94;5073749;28;20055;-54
2021/06/18 05:50:24;;;;;;;1.35;0.45;;;;;;;10.98;100.00;99987.97;5072986;28;20401;-54
2021/06/18 05:53:28;;;;;;;0.52;0.30;;;;;;;11.09;100.00;99988.16;5073667;28;20051;-54
2021/06/18 05:56:31;;;;;;;6.32;0.60;;;;;;;11.19;100.00;99984.06;5073482;28;20067;-54
2021/06/18 05:59:35;;;;;;;1.85;0.60;;;;;;;11.32;100.00;99987.38;5072752;28;20063;-54
2021/06/18 06:02:38;;;;;;;2.38;0.57;;;;;;;11.46;100.00;99983.84;5073635;28;20052;-54
2021/06/18 06:05:41;;;;;;;0.28;0.20;;;;;;;11.57;100.00;99989.63;5073530;28;20043;-54
2021/06/18 06:08:46;;;;;;;0.30;0.30;;;;;;;11.69;100.00;99991.41;5073488;28;20051;-45
2021/06/18 06:11:49;;;;;;;0.30;0.30;;;;;;;11.78;100.00;99993.34;5073526;28;20496;-45
2021/06/18 06:14:52;;;;;;;0.68;0.40;;;;;;;11.83;100.00;99998.22;5073596;28;20055;-45
2021/06/18 06:17:56;;;;;;;0.43;0.30;;;;;;;11.92;100.00;99996.13;5073273;28;20047;-45
2021/06/18 06:20:59;;;;;;;0.10;0.10;;;;;;;11.99;100.00;99992.97;5073221;28;20067;-45
2021/06/18 06:24:03;;;;;;;0.30;0.30;;;;;;;12.09;100.00;99997.19;5073208;28;20043;-45
2021/06/18 06:27:06;;;;;;;0.95;0.63;;;;;;;12.19;100.00;99990.22;5073197;28;20405;-45
2021/06/18 06:30:11;;;;;;;3.20;0.50;;;;;;;12.27;100.00;99990.63;5072989;28;20055;-45
2021/06/18 06:33:15;;;;;;;0.35;0.17;;;;;;;12.32;100.00;99986.38;5073344;28;20048;-45
2021/06/18 06:36:18;;;;;;;5.93;0.63;;;;;;;12.39;100.00;99985.97;5072907;28;20051;-45
2021/06/18 06:39:21;;;;;;;1.42;0.38;;;;;;;12.41;100.00;99989.81;5072813;28;20052;-45
2021/06/18 06:42:25;;;;;;;7.32;0.60;;;;;;;12.53;100.00;99985.94;5072994;28;20036;-45
2021/06/18 06:45:28;;;;;;;2.60;0.45;;;;;;;12.69;100.00;99993.03;5073038;28;20052;-45
2021/06/18 06:48:32;;;;;;;2.13;0.38;;;;;;;12.75;100.00;99983.47;5072352;28;20044;-45
2021/06/18 06:51:35;;;;;;;1.52;0.50;;;;;;;12.85;100.00;99995.28;5072323;28;20055;-45
2021/06/18 06:54:39;;;;;;;1.23;0.40;;;;;;;12.90;100.00;99991.78;5071960;28;20052;-45
2021/06/18 06:57:43;;;;;;;1.20;0.40;;;;;;;12.99;100.00;99982.50;5072557;28;20051;-45
2021/06/18 07:00:46;;;;;;;2.83;0.47;;;;;;;13.02;100.00;99987.09;5072568;28;20496;-45
2021/06/18 07:03:49;;;;;;;6.32;0.90;;;;;;;13.03;100.00;99980.25;5072404;28;20051;-48
2021/06/18 07:06:53;;;;;;;0.90;0.43;;;;;;;13.02;100.00;99993.47;5072445;28;20606;-45
2021/06/18 07:09:56;;;;;;;0.95;0.63;;;;;;;13.03;100.00;99983.84;5072019;28;20401;-45
2021/06/18 07:13:00;;;;;;;2.67;0.40;;;;;;;13.11;100.00;99984.19;5072294;28;20051;-45
2021/06/18 07:16:04;;;;;;;0.35;0.10;;;;;;;13.21;100.00;99988.41;5072443;28;20401;-45
2021/06/18 07:19:07;;;;;;;4.13;0.70;;;;;;;13.37;100.00;99996.97;5072575;28;20043;-45
2021/06/18 07:22:11;;;;;;;1.75;0.40;;;;;;;13.44;100.00;99999.34;5072305;28;20039;-45
2021/06/18 07:25:14;;;;;;;2.60;0.68;;;;;;;13.53;100.00;100010.41;5072179;28;20047;-45
2021/06/18 07:28:17;;;;;;;2.38;0.60;;;;;;;13.66;100.00;100002.38;5072399;28;20516;-45
2021/06/18 07:31:21;;;;;;;1.40;0.30;;;;;;;13.92;100.00;99996.81;5072064;28;20055;-45
2021/06/18 07:34:25;;;;;;;2.40;0.43;;;;;;;14.20;100.00;99988.63;5071626;28;20058;-45
2021/06/18 07:37:29;;;;;;;3.85;0.43;;;;;;;14.42;100.00;99986.03;5072127;28;20396;-45
2021/06/18 07:40:33;;;;;;;1.27;0.57;;;;;;;14.58;100.00;99984.59;5072151;28;20527;-45
2021/06/18 07:43:36;;;;;;;0.40;0.40;;;;;;;14.71;100.00;99985.69;5071666;28;20508;-45
2021/06/18 07:46:41;;;;;;;0.30;0.10;;;;;;;14.86;100.00;99989.09;5072048;28;20437;-45
2021/06/18 07:49:44;;;;;;;0.35;0.10;;;;;;;14.94;100.00;99990.16;5071911;28;20048;-45
2021/06/18 07:52:48;;;;;;;3.33;0.82;;;;;;;14.94;100.00;99990.16;5071953;28;20143;-45
2021/06/18 07:55:53;;;;;;;0.82;0.43;;;;;;;14.89;100.00;99988.09;5071362;28;20067;-45
2021/06/18 07:58:57;;;;;;;3.03;0.38;;;;;;;14.86;100.00;99993.94;5071835;28;20055;-45
2021/06/18 08:02:00;;;;;;;5.25;0.80;;;;;;;14.84;100.00;99996.47;5072137;28;20048;-45
2021/06/18 08:05:04;;;;;;;2.13;0.38;;;;;;;14.77;100.00;99994.91;5071801;28;20064;-45
2021/06/18 08:08:08;;;;;;;0.98;0.13;;;;;;;14.70;100.00;99991.81;5071880;28;20496;-45
2021/06/18 08:11:12;;;;;;;0.70;0.20;;;;;;;14.61;100.00;99989.97;5071909;28;20428;-45
2021/06/18 08:14:15;;;;;;;7.53;0.40;;;;;;;14.55;100.00;99980.00;5071793;28;20044;-45
2021/06/18 08:17:18;;;;;;;0.30;0.28;;;;;;;14.51;100.00;99988.63;5071978;28;20051;-45
2021/06/18 08:20:25;;;;;;;4.05;0.40;;;;;;;14.55;100.00;99992.00;5071553;28;20389;-45
2021/06/18 08:23:29;;;;;;;0.30;0.28;;;;;;;14.65;100.00;99984.91;5075152;28;20102;-45
2021/06/18 08:26:33;;;;;;;5.18;0.75;;;;;;;14.77;100.00;99986.50;5075334;28;20094;-45
2021/06/18 08:29:37;;;;;;;2.20;0.60;;;;;;;14.90;100.00;99978.41;5075217;28;20052;-45
2021/06/18 08:32:40;;;;;;;0.50;0.10;;;;;;;15.11;100.00;99977.00;5074856;28;20048;-45
2021/06/18 08:35:43;;;;;;;6.05;0.45;;;;;;;15.29;100.00;99977.81;5075117;28;20051;-45
2021/06/18 08:38:46;;;;;;;0.30;0.20;;;;;;;15.47;100.00;99958.50;5075078;28;20063;-45
2021/06/18 08:41:50;;;;;;;0.30;0.10;;;;;;;15.55;100.00;99965.16;5074986;28;20413;-45
2021/06/18 08:44:53;;;;;;;1.52;0.30;;;;;;;15.55;100.00;99964.41;5074879;28;20056;-46
2021/06/18 08:47:57;;;;;;;1.50;0.15;;;;;;;15.55;100.00;99970.03;5075116;28;20055;-46
2021/06/18 08:51:03;;;;;;;3.38;0.52;;;;;;;15.55;100.00;99970.03;5074135;28;20393;-46
2021/06/18 08:54:06;;;;;;;0.50;0.28;;;;;;;15.52;100.00;99971.03;5074080;28;20043;-46
2021/06/18 08:57:12;;;;;;;3.17;0.47;;;;;;;15.61;100.00;99968.00;5075044;28;20060;-46
2021/06/18 09:00:23;;;;;;;0.20;0.10;;;;;;;15.80;100.00;99971.84;5074915;28;20052;-46
2021/06/18 09:03:37;;;;;;;1.75;0.47;;;;;;;16.09;100.00;99962.91;5074701;28;20051;-46
2021/06/18 09:06:42;;;;;;;2.08;0.40;;;;;;;16.41;100.00;99961.38;5074516;28;20424;-46
2021/06/18 09:09:45;;;;;;;4.75;1.10;;;;;;;16.61;100.00;99963.19;5073643;28;20044;-46
2021/06/18 09:13:04;;;;;;;1.60;0.73;;;;;;;16.73;100.00;99966.72;5074699;28;20048;-46
2021/06/18 09:16:07;;;;;;;0.75;0.43;;;;;;;16.84;100.00;99964.63;5074539;28;20055;-46
2021/06/18 09:19:24;;;;;;;0.30;0.10;;;;;;;16.90;100.00;99950.53;5074527;28;20047;-46
2021/06/18 09:22:42;;;;;;;1.30;0.17;;;;;;;16.89;100.00;99971.53;5074573;28;20044;-46
2021/06/18 09:25:46;;;;;;;4.15;0.45;;;;;;;16.91;100.00;99966.94;5074582;28;20044;-46
2021/06/18 09:29:06;;;;;;;3.03;0.73;;;;;;;16.93;100.00;99966.41;5074382;28;20047;-46
2021/06/18 09:32:13;;;;;;;1.25;0.47;;;;;;;16.92;100.00;99959.22;5074379;28;20048;-46
2021/06/18 09:35:17;;;;;;;0.80;0.43;;;;;;;16.95;100.00;99958.22;5073999;28;20043;-46
2021/06/18 09:38:20;;;;;;;0.57;0.10;;;;;;;17.12;100.00;99961.72;5073971;28;20048;-46
2021/06/18 09:41:37;;;;;;;3.88;0.45;;;;;;;17.43;100.00;99958.50;5073079;28;20044;-46
2021/06/18 09:44:40;;;;;;;0.20;0.20;;;;;;;17.69;100.00;99947.63;5074120;28;20063;-46
2021/06/18 09:47:44;;;;;;;0.80;0.45;;;;;;;17.92;100.00;99943.34;5073953;28;20397;-46
2021/06/18 09:50:50;;;;;;;3.63;0.70;;;;;;;18.00;100.00;99949.16;5073836;28;20047;-46
2021/06/18 09:53:53;;;;;;;0.77;0.30;;;;;;;17.96;100.00;99946.66;5074003;28;20048;-46
2021/06/18 09:57:08;;;;;;;0.77;0.35;;;;;;;17.92;100.00;99946.16;5073579;28;20067;-46
2021/06/18 10:00:16;;;;;;;6.93;0.60;;;;;;;17.90;100.00;99945.16;5072823;28;20047;-46
2021/06/18 10:03:19;;;;;;;3.13;0.85;;;;;;;17.91;100.00;99939.00;5073545;28;20048;-46
2021/06/18 10:06:24;;;;;;;6.03;1.38;;;;;;;17.93;100.00;99933.59;5073295;28;20059;-46
2021/06/18 10:09:28;;;;;;;9.18;1.65;;;;;;;17.95;100.00;99936.66;5073343;28;20059;-46
2021/06/18 10:12:32;;;;;;;1.52;0.70;;;;;;;17.94;100.00;99935.13;5073218;28;20131;-46
2021/06/18 10:15:38;;;;;;;2.85;0.65;;;;;;;17.97;100.00;99925.66;5073345;28;20051;-46
2021/06/18 10:18:42;;;;;;;1.67;0.63;;;;;;;17.93;100.00;99927.97;5073100;28;20067;-47
2021/06/18 10:21:51;;;;;;;5.82;0.93;;;;;;;17.70;100.00;99926.59;5073441;28;20052;-47
2021/06/18 10:25:03;;;;;;;3.85;0.40;;;;;;;17.37;100.00;99927.56;5073586;28;20047;-46
2021/06/18 10:28:09;;;;;;;3.03;0.77;;;;;;;17.21;100.00;99924.84;5073189;28;20043;-44
2021/06/18 10:31:25;;;;;;;6.63;0.57;;;;;;;17.11;100.00;99929.22;5073011;28;20048;-46
2021/06/18 10:34:39;;;;;;;5.22;0.60;;;;;;;17.10;100.00;99925.66;5072936;28;20508;-46
2021/06/18 10:37:47;;;;;;;15.02;0.95;;;;;;;17.14;100.00;99926.16;5072927;28;20043;-46
2021/06/18 10:40:51;;;;;;;2.20;0.95;;;;;;;17.38;100.00;99923.47;5072853;28;20075;-44
2021/06/18 10:43:57;;;;;;;4.80;0.60;;;;;;;18.04;100.00;99915.84;5072767;28;20519;-46
2021/06/18 10:47:03;;;;;;;1.58;0.52;;;;;;;19.00;100.00;99917.91;5072065;28;20052;-46
2021/06/18 10:50:06;;;;;;;0.70;0.15;;;;;;;19.82;100.00;99914.47;5072736;28;20048;-44
2021/06/18 10:53:20;;;;;;;0.52;0.20;;;;;;;19.96;100.00;99910.38;5073014;28;20047;-46
2021/06/18 10:56:49;;;;;;;1.58;0.40;;;;;;;19.12;100.00;99908.03;5072206;28;20043;-47
2021/06/18 10:59:55;;;;;;;0.70;0.20;;;;;;;18.26;100.00;99912.06;5072714;28;20044;-46
2021/06/18 11:02:59;;;;;;;4.38;0.22;;;;;;;17.54;100.00;99916.22;5072520;28;20055;-46
2021/06/18 11:06:02;;;;;;;1.40;0.20;;;;;;;17.05;100.00;99917.22;5072964;28;20039;-46
2021/06/18 11:09:07;;;;;;;1.73;0.25;;;;;;;16.76;100.00;99912.25;5071941;28;20051;-46
2021/06/18 11:12:22;;;;;;;5.75;0.70;;;;;;;16.58;100.00;99914.34;5072164;28;20043;-45
2021/06/18 11:15:25;;;;;;;0.30;0.17;;;;;;;16.42;100.00;99912.31;5072221;28;20063;-46
2021/06/18 11:18:32;;;;;;;6.93;0.38;;;;;;;16.40;100.00;99912.06;5072401;28;20047;-46
2021/06/18 11:21:36;;;;;;;3.60;0.30;;;;;;;16.49;100.00;99917.41;5072008;28;20396;-45
2021/06/18 11:24:40;;;;;;;5.82;0.30;;;;;;;16.45;100.00;99913.31;5072053;28;20072;-45
2021/06/18 11:27:44;;;;;;;2.35;0.63;;;;;;;16.18;100.00;99909.28;5072000;28;20043;-46
2021/06/18 11:31:13;;;;;;;0.50;0.28;;;;;;;16.15;100.00;99910.31;5072243;28;20043;-45
2021/06/18 11:34:26;;;;;;;1.10;0.35;;;;;;;16.33;100.00;99903.41;5072112;28;20401;-46
2021/06/18 11:37:32;;;;;;;1.67;0.52;;;;;;;16.54;100.00;99907.47;5071936;28;20043;-45
2021/06/18 11:40:36;;;;;;;1.45;0.77;;;;;;;16.63;100.00;99907.94;5071798;28;20048;-45
2021/06/18 11:43:41;;;;;;;1.10;0.65;;;;;;;16.57;100.00;99904.38;5072067;28;20043;-46
2021/06/18 11:46:45;;;;;;;1.02;0.40;;;;;;;16.45;100.00;99907.72;5072044;28;20102;-46
2021/06/18 11:49:48;;;;;;;1.80;0.45;;;;;;;16.37;100.00;99903.91;5071956;28;20051;-46
2021/06/18 11:52:55;;;;;;;6.70;0.55;;;;;;;16.24;100.00;99901.59;5071982;28;20051;-46
2021/06/18 11:56:03;;;;;;;3.00;0.55;;;;;;;16.26;100.00;99901.88;5071569;28;20064;-46
2021/06/18 11:59:14;;;;;;;0.57;0.50;;;;;;;16.43;100.00;99893.41;5076063;28;20063;-46
2021/06/18 12:02:20;;;;;;;3.50;0.50;;;;;;;16.34;100.00;99894.44;5075980;28;20393;-46
2021/06/18 12:05:30;;;;;;;2.20;0.47;;;;;;;16.16;100.00;99892.16;5075752;28;20040;-46
2021/06/18 12:08:33;;;;;;;2.47;0.50;;;;;;;16.01;100.00;99894.47;5075636;28;20055;-46
2021/06/18 12:11:57;;;;;;;10.20;0.40;;;;;;;15.90;100.00;99894.47;5074539;28;20401;-46
2021/06/18 12:15:01;;;;;;;0.32;0.20;;;;;;;15.78;100.00;99888.13;5075997;28;20381;-46
2021/06/18 12:18:06;;;;;;;0.38;0.30;;;;;;;15.68;100.00;99891.69;5076001;28;20047;-46
2021/06/18 12:21:10;;;;;;;3.80;0.38;;;;;;;15.61;100.00;99883.78;5075645;28;20040;-46
2021/06/18 12:24:16;;;;;;;0.30;0.10;;;;;;;15.55;100.00;99885.81;5075576;28;20052;-46
2021/06/18 12:27:28;;;;;;;0.85;0.63;;;;;;;15.52;100.00;99881.22;5075485;28;20055;-46
2021/06/18 12:30:33;;;;;;;2.15;0.57;;;;;;;15.44;100.00;99880.19;5075343;28;20043;-46
2021/06/18 12:33:37;;;;;;;0.43;0.28;;;;;;;15.35;100.00;99880.41;5075177;28;20072;-46
2021/06/18 12:36:41;;;;;;;2.92;0.30;;;;;;;15.29;100.00;99879.63;5075022;28;20047;-45
2021/06/18 12:40:00;;;;;;;4.47;0.55;;;;;;;15.24;100.00;99874.75;5075180;28;20047;-46
2021/06/18 12:43:12;;;;;;;2.22;0.90;;;;;;;15.15;100.00;99876.53;5075525;28;20055;-46
2021/06/18 12:46:20;;;;;;;3.20;1.20;;;;;;;15.12;100.00;99883.16;5075166;28;20056;-46
2021/06/18 12:49:29;;;;;;;0.50;0.20;;;;;;;15.08;100.00;99882.63;5075056;28;20043;-46
2021/06/18 12:52:48;;;;;;;1.38;0.43;;;;;;;14.99;100.00;99880.03;5074867;28;20052;-46
2021/06/18 12:55:51;;;;;;;0.80;0.47;;;;;;;14.88;100.00;99882.03;5074749;28;20500;-46
2021/06/18 12:58:55;;;;;;;2.00;0.22;;;;;;;14.76;100.00;99878.44;5075006;28;20051;-46
2021/06/18 13:01:58;;;;;;;3.28;0.22;;;;;;;14.66;100.00;99879.91;5074920;28;20523;-45
2021/06/18 13:05:19;;;;;;;0.32;0.17;;;;;;;14.49;100.00;99875.53;5075030;28;20055;-46
2021/06/18 13:08:22;;;;;;;0.28;0.25;;;;;;;14.34;100.00;99879.25;5074430;28;20385;-46
2021/06/18 13:11:43;;;;;;;0.38;0.20;;;;;;;14.22;100.00;99885.25;5074501;28;20040;-45
2021/06/18 13:14:47;;;;;;;0.20;0.00;;;;;;;14.12;100.00;99881.13;5074588;28;20067;-45
2021/06/18 13:17:51;;;;;;;1.23;0.38;;;;;;;14.08;100.00;99881.34;5074910;28;20377;-45
2021/06/18 13:21:03;;;;;;;2.20;0.40;;;;;;;14.11;100.00;99885.19;5074545;28;20051;-46
2021/06/18 13:24:13;;;;;;;0.90;0.30;;;;;;;14.18;100.00;99879.13;5073701;28;20059;-46
2021/06/18 13:27:17;;;;;;;4.78;0.75;;;;;;;14.15;100.00;99882.91;5074155;28;20055;-45
2021/06/18 13:30:20;;;;;;;0.40;0.13;;;;;;;14.11;100.00;99885.97;5074313;28;20048;-52
2021/06/18 13:33:24;;;;;;;1.85;0.65;;;;;;;14.06;100.00;99886.69;5074253;28;20043;-54
2021/06/18 13:36:27;;;;;;;1.05;0.40;;;;;;;14.05;100.00;99882.38;5074040;28;20060;-54
2021/06/18 13:39:49;;;;;;;2.70;0.68;;;;;;;14.04;100.00;99888.44;5074115;28;20051;-54
2021/06/18 13:42:53;;;;;;;0.28;0.10;;;;;;;14.06;100.00;99885.91;5073369;28;20043;-54
2021/06/18 13:45:57;;;;;;;1.23;0.50;;;;;;;14.06;100.00;99889.47;5074034;28;20051;-53
2021/06/18 13:49:01;;;;;;;2.28;0.22;;;;;;;14.02;100.00;99888.94;5073858;28;20051;-54
2021/06/18 13:52:05;;;;;;;2.13;0.30;;;;;;;13.99;100.00;99901.13;5073842;28;20048;-54
2021/06/18 13:55:09;;;;;;;0.20;0.10;;;;;;;13.97;100.00;99891.72;5073574;28;20055;-54
2021/06/18 13:58:15;;;;;;;0.95;0.40;;;;;;;13.99;100.00;99889.19;5073652;28;20051;-54
2021/06/18 14:01:18;;;;;;;0.30;0.30;;;;;;;13.97;100.00;99886.88;5073982;28;20051;-54
2021/06/18 14:04:22;;;;;;;1.10;0.20;;;;;;;14.00;100.00;99879.50;5073719;28;20047;-54
2021/06/18 14:07:26;;;;;;;0.28;0.28;;;;;;;14.10;100.00;99880.84;5072860;28;20409;-54
2021/06/18 14:10:29;;;;;;;0.65;0.30;;;;;;;14.24;100.00;99877.13;5072609;28;20048;-54
2021/06/18 14:13:33;;;;;;;0.85;0.43;;;;;;;14.52;100.00;99880.88;5073443;28;20894;-54
2021/06/18 14:16:43;;;;;;;1.17;0.30;;;;;;;14.72;100.00;99877.16;5073298;28;20401;-54
2021/06/18 14:19:49;;;;;;;0.73;0.40;;;;;;;14.84;100.00;99885.09;5072505;28;20512;-54
2021/06/18 14:22:52;;;;;;;0.95;0.55;;;;;;;14.96;100.00;99878.28;5073161;28;20496;-54
2021/06/18 14:25:55;;;;;;;1.40;0.63;;;;;;;15.08;100.00;99882.63;5072918;28;20051;-54
2021/06/18 14:28:59;;;;;;;2.47;0.57;;;;;;;15.16;100.00;99874.47;5073038;28;20515;-52